Terminal Aerodrome Forecast
Issued by NWS Billings, MT

Home | Current Version | Previous Version | Graphics & Text | Print | Product List | Glossary Off
Versions: 1 2 3 4 5 6 7 8 9 10 11 12 13

000
FTUS45 KBYZ 232320
TAFMLS
TAF
KMLS 232320Z 2400/2424 27008KT P6SM SKC
     FM240300 21007KT P6SM SCT200
     FM241100 16007KT P6SM BKN200=

USA.gov is the U.S. government's official web portal to all federal, state and local government web resources and services.